Time;durP1;ratioP1;P1;durP2;ratioP2;P2;SDS_P1;SDS_P2;PMS_P1;PMS_P2;Temp;Humidity;BMP_temperature;BMP_pressure;BME280_temperature;BME280_humidity;BME280_pressure;Samples;Min_cycle;Max_cycle;Signal;HPM_P1;HPM_P2
2022/09/20 00:01:30;;;;;;;;;;;;;;;15.14;56.19;99050.41;4466898;32;35095;-83
2022/09/20 00:03:59;;;;;;;;;;;;;;;15.49;54.84;99047.50;4466609;32;34504;-82
2022/09/20 00:06:27;;;;;;;;;;;;;;;14.57;57.52;99054.25;4467017;32;34669;-83
2022/09/20 00:08:55;;;;;;;;;;;;;;;15.21;55.76;99052.97;4466881;32;35009;-85
2022/09/20 00:11:24;;;;;;;;;;;;;;;15.36;55.45;99040.66;4466054;32;34434;-84
2022/09/20 00:13:54;;;;;;;;;;;;;;;15.08;55.98;99046.97;4466789;32;34814;-82
2022/09/20 00:16:23;;;;;;;;;;;;;;;15.75;54.11;99042.94;4467129;32;33951;-85
2022/09/20 00:18:51;;;;;;;;;;;;;;;15.90;53.82;99046.28;4468384;32;34735;-83
2022/09/20 00:21:19;;;;;;;;;;;;;;;16.48;51.79;99049.09;4468985;32;34383;-82
2022/09/20 00:23:46;;;;;;;;;;;;;;;16.07;52.96;99044.34;4477806;32;34451;-84
2022/09/20 00:26:14;;;;;;;;;;;;;;;16.30;52.48;99046.69;4484346;32;33834;-83
2022/09/20 00:28:41;;;;;;;;;;;;;;;16.29;52.57;99047.59;4484404;32;34639;-83
2022/09/20 00:31:08;;;;;;;;;;;;;;;16.14;52.71;99042.50;4483730;32;33853;-85
2022/09/20 00:36:21;;;;;;;;;;;;;;;16.05;52.93;99039.13;4468660;32;34463;-83
2022/09/20 00:38:49;;;;;;;;;;;;;;;16.49;51.63;99035.09;4468637;32;34962;-84
2022/09/20 00:41:16;;;;;;;;;;;;;;;16.23;52.57;99034.56;4454608;32;35323;-83
2022/09/20 00:43:43;;;;;;;;;;;;;;;16.29;52.34;99037.12;4476147;32;34398;-84
2022/09/20 00:46:17;;;;;;;;;;;;;;;14.82;56.22;99038.47;4484195;32;33772;-82
2022/09/20 00:48:45;;;;;;;;;;;;;;;15.19;54.72;99051.22;4476424;32;35165;-82
2022/09/20 00:51:13;;;;;;;;;;;;;;;15.82;53.36;99051.59;4483989;32;34140;-83
2022/09/20 00:53:41;;;;;;;;;;;;;;;15.95;53.18;99037.50;4468454;32;34074;-81
2022/09/20 00:56:10;;;;;;;;;;;;;;;15.95;53.21;99047.97;4470175;32;33136;-83
2022/09/20 00:58:38;;;;;;;;;;;;;;;15.99;52.41;99052.28;4481605;31;34888;-84
2022/09/20 01:01:06;;;;;;;;;;;;;;;16.04;52.05;99050.47;4478265;32;35315;-83
2022/09/20 01:03:33;;;;;;;;;;;;;;;15.75;53.45;99060.38;4470081;32;34265;-82
2022/09/20 01:06:02;;;;;;;;;;;;;;;15.63;53.65;99061.31;4451917;32;34479;-83
2022/09/20 01:08:29;;;;;;;;;;;;;;;15.78;52.75;99065.56;4453264;32;33984;-81
2022/09/20 01:10:56;;;;;;;;;;;;;;;15.06;54.08;99064.37;4467025;32;34811;-84
2022/09/20 01:13:23;;;;;;;;;;;;;;;14.86;55.00;99076.72;4459379;32;34382;-83
2022/09/20 01:15:50;;;;;;;;;;;;;;;15.55;52.97;99068.38;4452951;32;33568;-82
2022/09/20 01:18:18;;;;;;;;;;;;;;;15.35;53.78;99071.16;4453194;32;34001;-85
2022/09/20 01:20:45;;;;;;;;;;;;;;;15.26;54.47;99069.47;4453012;32;34167;-85
2022/09/20 01:23:34;;;;;;;;;;;;;;;16.10;51.99;99065.25;4453410;32;35810;-81
2022/09/20 01:26:01;;;;;;;;;;;;;;;16.03;52.23;99063.56;4455745;32;33656;-82
2022/09/20 01:28:28;;;;;;;;;;;;;;;16.76;50.49;99069.69;4464695;32;34031;-84
2022/09/20 01:31:01;;;;;;;;;;;;;;;16.87;50.38;99066.91;4456665;32;34353;-83
2022/09/20 01:33:30;;;;;;;;;;;;;;;16.71;50.29;99067.09;4460443;32;34539;-82
2022/09/20 01:35:58;;;;;;;;;;;;;;;16.98;49.65;99075.47;4455836;32;33585;-84
2022/09/20 01:38:28;;;;;;;;;;;;;;;17.36;48.43;99061.78;4458639;32;34829;-84
2022/09/20 01:41:05;;;;;;;;;;;;;;;16.48;50.69;99064.78;4462910;32;33882;-84
2022/09/20 01:43:51;;;;;;;;;;;;;;;16.67;49.91;99069.78;4459907;32;35173;-81
2022/09/20 01:46:19;;;;;;;;;;;;;;;16.47;50.74;99076.09;4458562;32;34411;-82
2022/09/20 01:48:46;;;;;;;;;;;;;;;15.37;53.53;99086.81;4452810;32;34202;-84
2022/09/20 01:51:19;;;;;;;;;;;;;;;16.14;51.32;99084.34;4451200;32;34081;-83
2022/09/20 01:53:50;;;;;;;;;;;;;;;16.10;51.68;99080.03;4458749;32;34113;-84
2022/09/20 01:56:17;;;;;;;;;;;;;;;16.35;51.23;99080.63;4468089;32;34478;-84
2022/09/20 01:58:47;;;;;;;;;;;;;;;15.79;52.69;99085.59;4467714;32;33951;-82
2022/09/20 02:01:44;;;;;;;;;;;;;;;15.87;52.09;99082.91;4459160;32;34419;-83
2022/09/20 02:04:30;;;;;;;;;;;;;;;15.97;51.43;99087.16;4451742;32;34527;-82
2022/09/20 02:07:16;;;;;;;;;;;;;;;15.90;51.94;99083.72;4453472;32;33223;-85
2022/09/20 02:10:01;;;;;;;;;;;;;;;14.05;56.82;99095.25;4452669;32;33762;-85
2022/09/20 02:12:37;;;;;;;;;;;;;;;15.45;53.45;99088.47;4453876;32;34372;-82
2022/09/20 02:15:15;;;;;;;;;;;;;;;16.11;51.61;99090.50;4452418;32;34874;-82
2022/09/20 02:17:47;;;;;;;;;;;;;;;16.43;51.11;99095.34;4451230;32;34397;-80
2022/09/20 02:20:34;;;;;;;;;;;;;;;16.81;50.00;99098.41;4452366;32;34160;-83
2022/09/20 02:23:10;;;;;;;;;;;;;;;15.92;51.96;99100.28;4446288;32;34140;-82
2022/09/20 02:25:47;;;;;;;;;;;;;;;16.85;49.61;99098.34;4466588;32;34802;-83
2022/09/20 02:28:41;;;;;;;;;;;;;;;17.15;48.89;99093.56;4467873;32;33298;-85
2022/09/20 02:31:14;;;;;;;;;;;;;;;17.30;48.52;99102.94;4441256;32;34782;-82
2022/09/20 02:33:50;;;;;;;;;;;;;;;17.67;47.64;99100.59;4452138;32;34258;-81
2022/09/20 02:36:28;;;;;;;;;;;;;;;17.38;47.89;99103.66;4452414;32;35260;-82
2022/09/20 02:39:07;;;;;;;;;;;;;;;17.25;48.07;99100.38;4450782;32;33634;-83
2022/09/20 02:41:49;;;;;;;;;;;;;;;17.54;47.47;99091.19;4455151;32;34088;-83
2022/09/20 02:44:26;;;;;;;;;;;;;;;17.78;46.71;99085.56;4467777;32;34991;-83
2022/09/20 02:47:05;;;;;;;;;;;;;;;17.77;46.59;99096.97;4467777;32;35126;-81
2022/09/20 02:49:35;;;;;;;;;;;;;;;17.94;46.23;99091.41;4468023;32;33408;-81
2022/09/20 02:52:24;;;;;;;;;;;;;;;18.34;44.96;99093.28;4451638;32;34918;-84
2022/09/20 02:54:59;;;;;;;;;;;;;;;18.36;44.95;99097.56;4451711;32;32810;-82
2022/09/20 02:57:58;;;;;;;;;;;;;;;18.57;44.07;99103.31;4450997;32;33820;-83
2022/09/20 03:00:31;;;;;;;;;;;;;;;18.59;43.96;99096.25;4399775;32;33524;-81
2022/09/20 03:03:07;;;;;;;;;;;;;;;18.50;43.81;99107.81;4451538;32;35122;-83
2022/09/20 03:05:52;;;;;;;;;;;;;;;18.77;42.83;99114.28;4459904;32;33966;-83
2022/09/20 03:08:28;;;;;;;;;;;;;;;18.43;43.54;99116.69;4452844;32;34574;-80
2022/09/20 03:11:02;;;;;;;;;;;;;;;18.36;43.82;99120.34;4467452;32;33476;-81
2022/09/20 03:13:29;;;;;;;;;;;;;;;18.47;43.75;99121.84;4467652;32;34342;-83
2022/09/20 03:16:15;;;;;;;;;;;;;;;17.88;45.10;99118.63;4467650;32;34428;-81
2022/09/20 03:18:48;;;;;;;;;;;;;;;17.31;46.83;99110.75;4467019;32;34692;-81
2022/09/20 03:21:21;;;;;;;;;;;;;;;16.92;48.22;99118.31;4477408;32;33469;-85
2022/09/20 03:23:54;;;;;;;;;;;;;;;17.48;46.58;99116.63;4482736;32;34940;-82
2022/09/20 03:26:41;;;;;;;;;;;;;;;17.22;47.52;99105.66;4472078;32;34264;-81
2022/09/20 03:29:21;;;;;;;;;;;;;;;17.51;46.76;99108.72;4477055;32;35123;-82
2022/09/20 03:31:49;;;;;;;;;;;;;;;17.61;46.26;99101.53;4468346;32;33565;-83
2022/09/20 03:34:49;;;;;;;;;;;;;;;17.45;46.83;99107.94;4482993;32;34334;-83
2022/09/20 03:37:22;;;;;;;;;;;;;;;17.56;46.73;99107.75;4448168;32;35247;-83
2022/09/20 03:40:01;;;;;;;;;;;;;;;17.12;47.40;99106.69;4468396;32;35137;-82
2022/09/20 03:42:29;;;;;;;;;;;;;;;17.32;46.84;99107.28;4467326;32;33634;-83
2022/09/20 03:45:05;;;;;;;;;;;;;;;17.31;46.96;99110.75;4467570;32;34520;-84
2022/09/20 03:47:39;;;;;;;;;;;;;;;17.60;46.20;99114.69;4467278;32;34216;-83
2022/09/20 03:50:24;;;;;;;;;;;;;;;17.51;46.51;99107.84;4468679;32;34219;-83
2022/09/20 03:52:52;;;;;;;;;;;;;;;17.15;47.29;99106.66;4482273;32;33974;-81
2022/09/20 03:55:37;;;;;;;;;;;;;;;15.94;50.08;99108.97;4482934;32;33627;-85
2022/09/20 03:58:14;;;;;;;;;;;;;;;15.64;51.05;99107.47;4481377;32;35295;-84
2022/09/20 04:00:57;;;;;;;;;;;;;;;16.08;50.03;99107.97;4481759;32;35539;-81
2022/09/20 04:03:26;;;;;;;;;;;;;;;16.24;49.55;99106.91;4468909;32;33606;-81
2022/09/20 04:06:12;;;;;;;;;;;;;;;16.57;48.47;99102.19;4478465;32;35108;-81
2022/09/20 04:08:48;;;;;;;;;;;;;;;16.05;49.80;99106.25;4467696;32;34392;-82
2022/09/20 04:11:25;;;;;;;;;;;;;;;15.69;50.69;99104.88;4452670;32;34555;-84
2022/09/20 04:14:11;;;;;;;;;;;;;;;16.59;48.10;99097.78;4480863;32;33105;-82
2022/09/20 04:16:40;;;;;;;;;;;;;;;16.71;47.58;99110.72;4454279;32;33985;-81
2022/09/20 04:19:07;;;;;;;;;;;;;;;16.68;47.77;99116.00;4465623;32;34246;-81
2022/09/20 04:21:37;;;;;;;;;;;;;;;17.08;46.99;99125.97;4482289;32;33886;-82
2022/09/20 04:24:08;;;;;;;;;;;;;;;15.97;49.51;99124.63;4468601;32;33824;-81
2022/09/20 04:26:38;;;;;;;;;;;;;;;15.72;50.05;99115.28;4454365;32;33671;-81
2022/09/20 04:29:25;;;;;;;;;;;;;;;15.98;49.41;99121.12;4452105;32;35257;-81
2022/09/20 04:31:55;;;;;;;;;;;;;;;15.48;50.59;99127.62;4473099;32;32976;-81
2022/09/20 04:36:27;;;;;;;;;;;;;;;15.58;50.53;99120.59;4453686;32;34541;-81
2022/09/20 04:37:26;;;;;;;;;;;;;;;15.44;51.03;99118.09;4459158;32;35077;-79
2022/09/20 04:39:56;;;;;;;;;;;;;;;15.82;49.77;99127.38;4476652;32;35141;-83
2022/09/20 04:42:23;;;;;;;;;;;;;;;15.39;50.73;99124.25;4452800;32;35336;-81
2022/09/20 04:45:07;;;;;;;;;;;;;;;15.41;50.99;99118.09;4468801;32;34421;-82
2022/09/20 04:47:41;;;;;;;;;;;;;;;15.72;50.16;99112.66;4476169;32;35023;-82
2022/09/20 04:50:27;;;;;;;;;;;;;;;15.63;50.63;99120.56;4469373;32;35316;-83
2022/09/20 04:53:01;;;;;;;;;;;;;;;16.02;49.19;99125.47;4467791;32;34150;-83
2022/09/20 04:55:59;;;;;;;;;;;;;;;15.44;50.81;99125.06;4453480;32;34814;-84
2022/09/20 04:58:45;;;;;;;;;;;;;;;15.91;50.21;99123.81;4464011;32;34234;-81
2022/09/20 05:01:25;;;;;;;;;;;;;;;16.26;49.36;99132.19;4470561;32;34269;-82
2022/09/20 05:04:04;;;;;;;;;;;;;;;16.17;49.53;99136.62;4479746;32;34526;-80
2022/09/20 05:06:34;;;;;;;;;;;;;;;16.27;49.15;99133.03;4483744;32;34283;-82
2022/09/20 05:09:19;;;;;;;;;;;;;;;16.76;47.86;99142.97;4484283;32;34197;-83
2022/09/20 05:12:00;;;;;;;;;;;;;;;17.42;46.48;99132.41;4484181;31;34408;-82
2022/09/20 05:14:37;;;;;;;;;;;;;;;17.39;46.65;99135.13;4470276;32;34155;-82
2022/09/20 05:17:17;;;;;;;;;;;;;;;16.92;47.76;99152.34;4483548;32;33623;-81
2022/09/20 05:20:01;;;;;;;;;;;;;;;17.57;46.12;99152.28;4466354;32;34838;-82
2022/09/20 05:22:48;;;;;;;;;;;;;;;16.83;47.87;99155.09;4479205;32;34652;-82
2022/09/20 05:25:22;;;;;;;;;;;;;;;17.60;46.32;99152.25;4481532;32;35376;-80
2022/09/20 05:27:51;;;;;;;;;;;;;;;16.61;48.68;99158.84;4454783;32;33692;-83
2022/09/20 05:30:32;;;;;;;;;;;;;;;17.55;46.33;99155.84;4460910;32;34649;-80
2022/09/20 05:33:11;;;;;;;;;;;;;;;16.72;48.26;99159.56;4479426;32;34930;-83
2022/09/20 05:35:55;;;;;;;;;;;;;;;16.87;48.46;99167.28;4465426;32;34582;-83
2022/09/20 05:38:28;;;;;;;;;;;;;;;16.95;48.13;99162.78;4459560;32;33690;-80
2022/09/20 05:41:13;;;;;;;;;;;;;;;17.05;47.63;99162.66;4457284;32;34663;-80
2022/09/20 05:44:00;;;;;;;;;;;;;;;16.66;48.53;99170.09;4458060;32;34141;-82
2022/09/20 05:46:33;;;;;;;;;;;;;;;16.45;49.64;99161.63;4483794;32;34093;-82
2022/09/20 05:49:11;;;;;;;;;;;;;;;16.57;49.43;99167.63;4481648;32;34524;-82
2022/09/20 05:51:41;;;;;;;;;;;;;;;16.52;50.11;99176.38;4462868;32;33851;-82
2022/09/20 05:54:17;;;;;;;;;;;;;;;16.98;48.43;99156.66;4468170;32;34152;-82
2022/09/20 05:57:00;;;;;;;;;;;;;;;16.96;48.75;99161.91;4481478;32;34540;-83
2022/09/20 05:59:38;;;;;;;;;;;;;;;16.05;51.04;99164.63;4469568;32;33677;-85
2022/09/20 06:02:12;;;;;;;;;;;;;;;16.19;51.14;99166.28;4483432;32;34878;-82
2022/09/20 06:05:00;;;;;;;;;;;;;;;16.45;51.06;99168.63;4469614;32;35213;-85
2022/09/20 06:07:41;;;;;;;;;;;;;;;16.60;51.19;99184.16;4479669;32;34422;-82
2022/09/20 06:10:29;;;;;;;;;;;;;;;16.66;50.77;99173.59;4453937;32;33558;-84
2022/09/20 06:12:56;;;;;;;;;;;;;;;16.13;52.55;99182.00;4464857;32;34324;-84
2022/09/20 06:15:43;;;;;;;;;;;;;;;17.18;49.72;99183.44;4483318;31;34277;-84
2022/09/20 06:18:28;;;;;;;;;;;;;;;17.31;49.75;99180.66;4483710;32;34447;-82
2022/09/20 06:20:59;;;;;;;;;;;;;;;16.93;50.55;99185.53;4469317;32;33524;-82
2022/09/20 06:23:26;;;;;;;;;;;;;;;16.42;51.99;99193.06;4469834;32;34198;-84
2022/09/20 06:25:56;;;;;;;;;;;;;;;17.44;49.20;99195.31;4483657;32;34306;-83
2022/09/20 06:28:25;;;;;;;;;;;;;;;17.59;50.25;99191.59;4469373;32;34231;-83
2022/09/20 06:30:53;;;;;;;;;;;;;;;17.04;50.72;99190.59;4469365;32;34342;-84
2022/09/20 06:33:21;;;;;;;;;;;;;;;16.51;51.41;99189.47;4469507;32;34167;-85
2022/09/20 06:35:50;;;;;;;;;;;;;;;16.80;50.94;99186.56;4470473;32;34530;-87
2022/09/20 06:41:34;;;;;;;;;;;;;;;17.14;49.92;99189.62;4467941;32;33528;-87
2022/09/20 06:44:04;;;;;;;;;;;;;;;17.26;49.26;99181.56;4465955;32;33709;-87
2022/09/20 06:46:33;;;;;;;;;;;;;;;17.72;48.31;99185.25;4468188;32;34088;-92
2022/09/20 06:49:00;;;;;;;;;;;;;;;17.33;48.68;99189.38;4454021;32;34526;-95
2022/09/20 06:51:28;;;;;;;;;;;;;;;17.78;48.36;99182.59;4468392;32;34404;-93
2022/09/20 06:53:55;;;;;;;;;;;;;;;16.61;51.13;99190.25;4467941;32;35265;-86
2022/09/20 06:56:24;;;;;;;;;;;;;;;16.67;51.11;99192.81;4468369;32;34022;-86
2022/09/20 06:58:52;;;;;;;;;;;;;;;16.58;51.96;99190.28;4468159;32;34597;-88
2022/09/20 07:01:19;;;;;;;;;;;;;;;16.97;50.38;99194.19;4467628;32;33644;-93
2022/09/20 07:03:57;;;;;;;;;;;;;;;15.79;53.57;99195.38;4455080;32;34183;-88
2022/09/20 07:06:26;;;;;;;;;;;;;;;16.75;51.88;99193.63;4467768;32;35003;-92
2022/09/20 07:08:53;;;;;;;;;;;;;;;15.50;54.22;99199.03;4467858;32;35150;-86
2022/09/20 07:11:22;;;;;;;;;;;;;;;15.80;53.37;99194.50;4468606;32;34466;-84
2022/09/20 07:13:49;;;;;;;;;;;;;;;16.58;52.02;99200.75;4468863;32;34127;-91
2022/09/20 07:16:16;;;;;;;;;;;;;;;16.58;51.18;99200.75;4454819;32;32949;-88
2022/09/20 07:18:44;;;;;;;;;;;;;;;17.03;50.57;99207.22;4454651;32;34458;-91
2022/09/20 07:21:11;;;;;;;;;;;;;;;16.59;50.96;99207.69;4468454;32;34322;-95
2022/09/20 07:23:39;;;;;;;;;;;;;;;16.26;51.82;99201.97;4468181;32;34720;-88
2022/09/20 07:26:11;;;;;;;;;;;;;;;16.27;52.21;99211.53;4468587;32;34104;-92
2022/09/20 07:28:38;;;;;;;;;;;;;;;16.17;52.95;99208.13;4453716;32;34415;-96
2022/09/20 07:31:05;;;;;;;;;;;;;;;17.23;49.79;99205.19;4469827;32;33575;-86
2022/09/20 07:33:33;;;;;;;;;;;;;;;16.71;50.85;99213.69;4483792;32;34878;-96
2022/09/20 07:36:01;;;;;;;;;;;;;;;16.35;52.07;99221.91;4483759;32;34097;-86
2022/09/20 07:38:28;;;;;;;;;;;;;;;16.40;52.82;99225.34;4480163;32;34569;-85
2022/09/20 07:40:56;;;;;;;;;;;;;;;16.19;52.53;99226.44;4478149;32;34045;-91
2022/09/20 07:43:23;;;;;;;;;;;;;;;16.80;50.63;99233.69;4473549;32;34315;-86
2022/09/20 07:45:54;;;;;;;;;;;;;;;16.18;52.15;99230.81;4461589;32;34323;-86
2022/09/20 07:48:24;;;;;;;;;;;;;;;16.61;51.28;99229.50;4469098;32;34441;-96
2022/09/20 07:50:56;;;;;;;;;;;;;;;16.52;51.52;99226.09;4453273;32;33116;-96
2022/09/20 07:53:23;;;;;;;;;;;;;;;17.23;50.20;99233.16;4460641;32;34934;-90
2022/09/20 07:56:10;;;;;;;;;;;;;;;17.04;49.87;99229.91;4473599;32;33921;-93
2022/09/20 07:58:38;;;;;;;;;;;;;;;16.25;52.84;99234.19;4473413;32;34315;-86
2022/09/20 08:01:06;;;;;;;;;;;;;;;17.12;51.47;99224.56;4473174;32;33385;-87
2022/09/20 08:03:34;;;;;;;;;;;;;;;16.60;52.72;99226.03;4474360;32;34241;-86
2022/09/20 08:06:08;;;;;;;;;;;;;;;17.21;50.23;99217.47;4475160;32;34378;-89
2022/09/20 08:08:36;;;;;;;;;;;;;;;17.62;49.49;99223.87;4469653;32;35253;-86
2022/09/20 08:11:05;;;;;;;;;;;;;;;17.60;49.08;99237.91;4468858;32;34538;-96
2022/09/20 08:13:36;;;;;;;;;;;;;;;17.35;50.20;99230.41;4472945;32;33950;-96
2022/09/20 08:16:23;;;;;;;;;;;;;;;16.68;50.96;99237.28;4472610;32;34250;-96
2022/09/20 08:18:51;;;;;;;;;;;;;;;17.43;48.24;99233.78;4469096;32;34386;-86
2022/09/20 08:21:19;;;;;;;;;;;;;;;17.27;50.55;99237.47;4457816;32;33400;-86
2022/09/20 08:23:49;;;;;;;;;;;;;;;18.29;46.71;99228.94;4472066;32;33905;-87
2022/09/20 08:26:17;;;;;;;;;;;;;;;18.16;47.02;99228.31;4457752;32;33966;-88
2022/09/20 08:28:45;;;;;;;;;;;;;;;18.07;48.95;99236.31;4453642;32;34428;-91
2022/09/20 08:31:18;;;;;;;;;;;;;;;16.69;50.63;99231.16;4474865;32;33168;-86
2022/09/20 08:33:46;;;;;;;;;;;;;;;17.10;51.25;99227.22;4456490;32;34174;-86
2022/09/20 08:36:14;;;;;;;;;;;;;;;17.76;48.51;99234.19;4471319;32;33897;-85
2022/09/20 08:38:41;;;;;;;;;;;;;;;17.07;49.72;99223.75;4455724;32;33624;-86
2022/09/20 08:41:32;;;;;;;;;;;;;;;16.88;50.17;99233.59;4469715;32;33506;-85
2022/09/20 08:44:02;;;;;;;;;;;;;;;16.62;51.15;99236.47;4457105;32;34356;-85
2022/09/20 08:46:32;;;;;;;;;;;;;;;17.05;50.44;99244.75;4478151;32;33771;-86
2022/09/20 08:49:02;;;;;;;;;;;;;;;18.46;47.13;99235.62;4460918;32;34304;-85
2022/09/20 08:51:32;;;;;;;;;;;;;;;17.94;47.78;99233.91;4457903;32;33148;-86
2022/09/20 08:53:59;;;;;;;;;;;;;;;18.40;47.48;99234.88;4462060;32;34031;-86
2022/09/20 08:56:28;;;;;;;;;;;;;;;18.31;47.12;99246.41;4472563;32;34541;-96
2022/09/20 08:58:59;;;;;;;;;;;;;;;18.00;47.70;99251.31;4471878;32;34420;-96
2022/09/20 09:01:28;;;;;;;;;;;;;;;17.80;47.76;99248.97;4461864;32;33938;-89
2022/09/20 09:04:12;;;;;;;;;;;;;;;18.16;47.07;99242.28;4457953;32;34231;-90
2022/09/20 09:06:40;;;;;;;;;;;;;;;18.23;47.39;99240.44;4456983;32;35329;-93
2022/09/20 09:09:09;;;;;;;;;;;;;;;17.38;47.92;99235.56;4457983;32;35100;-86
2022/09/20 09:11:36;;;;;;;;;;;;;;;17.64;47.48;99235.19;4457432;32;34241;-96
2022/09/20 09:14:47;;;;;;;;;;;;;;;17.84;47.61;99226.19;4458729;32;34212;-86
2022/09/20 09:16:57;;;;;;;;;;;;;;;18.56;46.03;99232.84;4457867;32;35324;-86
2022/09/20 09:19:26;;;;;;;;;;;;;;;17.80;48.53;99227.12;4471277;32;35282;-89
2022/09/20 09:22:01;;;;;;;;;;;;;;;17.86;47.85;99233.16;4472967;32;34550;-86
2022/09/20 09:24:30;;;;;;;;;;;;;;;17.50;48.78;99232.81;4459425;32;34295;-92
2022/09/20 09:27:05;;;;;;;;;;;;;;;17.46;48.92;99231.13;4471115;32;34153;-87
2022/09/20 09:29:32;;;;;;;;;;;;;;;17.66;47.82;99232.56;4470535;32;35076;-86
2022/09/20 09:32:20;;;;;;;;;;;;;;;18.25;46.97;99220.25;4470266;32;34499;-86
2022/09/20 09:34:48;;;;;;;;;;;;;;;18.65;46.43;99222.16;4459012;32;34716;-87
2022/09/20 09:37:22;;;;;;;;;;;;;;;19.05;46.17;99221.41;4477308;32;35171;-87
2022/09/20 09:40:05;;;;;;;;;;;;;;;19.43;45.36;99223.19;4470501;32;34663;-96
2022/09/20 09:42:32;;;;;;;;;;;;;;;18.65;45.32;99228.28;4457093;32;33171;-86
2022/09/20 09:45:09;;;;;;;;;;;;;;;18.32;45.37;99221.03;4473783;32;34550;-86
2022/09/20 09:47:36;;;;;;;;;;;;;;;18.31;45.17;99228.03;4471668;32;34035;-85
2022/09/20 09:50:04;;;;;;;;;;;;;;;18.90;44.40;99228.72;4469396;32;34519;-87
2022/09/20 09:52:36;;;;;;;;;;;;;;;18.64;43.72;99225.69;4475898;32;34458;-86
2022/09/20 09:55:03;;;;;;;;;;;;;;;18.94;44.14;99222.50;4460877;32;34177;-86
2022/09/20 09:57:44;;;;;;;;;;;;;;;19.81;42.12;99209.22;4458702;32;35136;-86
2022/09/20 10:00:12;;;;;;;;;;;;;;;19.32;42.68;99219.94;4472705;32;34612;-86
2022/09/20 10:02:54;;;;;;;;;;;;;;;18.95;43.58;99232.09;4459812;32;33653;-86
2022/09/20 10:05:40;;;;;;;;;;;;;;;18.42;44.31;99217.34;4470537;32;35048;-87
2022/09/20 10:08:08;;;;;;;;;;;;;;;18.20;45.31;99212.47;4471741;32;33820;-85
2022/09/20 10:10:44;;;;;;;;;;;;;;;18.26;44.15;99214.16;4472544;32;35298;-86
2022/09/20 10:13:20;;;;;;;;;;;;;;;18.87;42.90;99218.25;4458732;32;33603;-86
2022/09/20 10:15:50;;;;;;;;;;;;;;;18.89;43.96;99220.84;4476782;32;33673;-87
2022/09/20 10:18:17;;;;;;;;;;;;;;;19.69;41.28;99210.34;4473240;32;35259;-86
2022/09/20 10:20:54;;;;;;;;;;;;;;;19.11;42.67;99213.41;4474834;32;35379;-86
2022/09/20 10:23:22;;;;;;;;;;;;;;;19.78;42.58;99216.31;4458747;32;33798;-85
2022/09/20 10:26:21;;;;;;;;;;;;;;;19.55;40.99;99220.31;4470453;32;34983;-88
2022/09/20 10:28:53;;;;;;;;;;;;;;;18.90;44.50;99222.56;4470585;32;34515;-85
2022/09/20 10:31:39;;;;;;;;;;;;;;;18.50;43.93;99211.97;4458605;32;35150;-86
2022/09/20 10:34:20;;;;;;;;;;;;;;;19.19;43.31;99216.72;4471271;32;33557;-85
2022/09/20 10:36:51;;;;;;;;;;;;;;;19.08;43.69;99216.94;4459189;32;33343;-86
2022/09/20 10:39:24;;;;;;;;;;;;;;;19.14;45.12;99215.97;4456782;32;35352;-85
2022/09/20 10:45:01;;;;;;;;;;;;;;;19.84;42.61;99203.00;4471254;32;34365;-85
2022/09/20 10:47:32;;;;;;;;;;;;;;;19.02;44.00;99200.47;4460620;32;34991;-86
2022/09/20 10:49:59;;;;;;;;;;;;;;;19.69;43.48;99201.59;4456925;32;33824;-85
2022/09/20 10:52:30;;;;;;;;;;;;;;;18.91;44.15;99204.16;4472654;32;34302;-86
2022/09/20 10:55:17;;;;;;;;;;;;;;;19.49;41.96;99199.41;4455713;32;33327;-86
2022/09/20 10:58:03;;;;;;;;;;;;;;;18.83;44.80;99215.75;4473445;32;35166;-86
2022/09/20 11:00:48;;;;;;;;;;;;;;;18.95;44.97;99221.59;4471638;31;34308;-86
2022/09/20 11:03:21;;;;;;;;;;;;;;;19.49;44.16;99223.06;4473053;32;35169;-86
2022/09/20 11:06:05;;;;;;;;;;;;;;;19.88;46.19;99216.03;4469518;32;33677;-87
2022/09/20 11:08:33;;;;;;;;;;;;;;;19.52;47.32;99222.16;4454557;32;34869;-87
2022/09/20 11:11:04;;;;;;;;;;;;;;;19.62;47.84;99228.94;4454096;32;34303;-87
2022/09/20 11:13:50;;;;;;;;;;;;;;;20.09;47.19;99224.31;4454249;32;35232;-86
2022/09/20 11:16:22;;;;;;;;;;;;;;;19.68;48.83;99226.19;4468509;32;33333;-87
2022/09/20 11:19:03;;;;;;;;;;;;;;;19.73;46.84;99208.50;4455027;32;34205;-91
2022/09/20 11:21:38;;;;;;;;;;;;;;;19.94;47.04;99212.41;4468136;32;34306;-87
2022/09/20 11:24:14;;;;;;;;;;;;;;;19.81;47.82;99209.22;4468329;32;34413;-92
2022/09/20 11:26:43;;;;;;;;;;;;;;;20.32;48.19;99206.16;4468758;32;33754;-89
2022/09/20 11:29:24;;;;;;;;;;;;;;;20.39;48.35;99202.47;4454827;32;34987;-87
2022/09/20 11:31:53;;;;;;;;;;;;;;;20.05;48.49;99205.12;4457333;32;34200;-88
2022/09/20 11:34:22;;;;;;;;;;;;;;;19.63;46.85;99197.38;4470047;32;35252;-87
2022/09/20 11:36:56;;;;;;;;;;;;;;;20.59;44.12;99195.84;4456838;32;33769;-87
2022/09/20 11:39:28;;;;;;;;;;;;;;;20.35;45.96;99197.34;4456971;32;34123;-96
2022/09/20 11:41:55;;;;;;;;;;;;;;;20.12;48.45;99203.19;4456435;32;34319;-88
2022/09/20 11:44:22;;;;;;;;;;;;;;;20.13;43.76;99183.88;4454088;32;34922;-87
2022/09/20 11:46:54;;;;;;;;;;;;;;;20.07;45.52;99194.53;4457472;32;33747;-86
2022/09/20 11:49:22;;;;;;;;;;;;;;;19.01;47.23;99191.69;4458753;32;33920;-94
2022/09/20 11:51:58;;;;;;;;;;;;;;;18.84;45.99;99197.31;4462878;32;33872;-95
2022/09/20 11:54:29;;;;;;;;;;;;;;;19.50;44.22;99189.75;4458592;32;34585;-86
2022/09/20 11:56:57;;;;;;;;;;;;;;;18.42;47.39;99188.47;4462327;32;33662;-86
2022/09/20 11:59:39;;;;;;;;;;;;;;;18.79;47.06;99185.16;4474730;32;34281;-86
2022/09/20 12:02:33;;;;;;;;;;;;;;;18.74;47.59;99181.75;4461277;32;35710;-87
2022/09/20 12:05:02;;;;;;;;;;;;;;;18.77;47.87;99189.59;4450347;32;34126;-90
2022/09/20 12:07:41;;;;;;;;;;;;;;;18.98;47.73;99188.25;4473856;32;33663;-86
2022/09/20 12:10:22;;;;;;;;;;;;;;;19.11;47.67;99184.50;4462399;32;34412;-86
2022/09/20 12:12:54;;;;;;;;;;;;;;;19.76;47.52;99182.16;4461580;32;34469;-86
2022/09/20 12:15:26;;;;;;;;;;;;;;;19.56;45.53;99181.72;4463440;32;34908;-90
2022/09/20 12:17:56;;;;;;;;;;;;;;;19.34;46.02;99178.72;4465222;32;33495;-86
2022/09/20 12:20:41;;;;;;;;;;;;;;;19.25;46.96;99174.53;4480818;32;35305;-86
2022/09/20 12:23:31;;;;;;;;;;;;;;;19.65;45.90;99166.62;4478281;32;34201;-86
2022/09/20 12:26:00;;;;;;;;;;;;;;;19.59;45.97;99165.88;4473002;32;35227;-87
2022/09/20 12:28:44;;;;;;;;;;;;;;;20.18;44.46;99155.63;4478929;32;34046;-94
2022/09/20 12:31:17;;;;;;;;;;;;;;;20.50;43.88;99167.12;4459514;32;33762;-86
2022/09/20 12:33:55;;;;;;;;;;;;;;;19.39;45.04;99168.97;4475480;32;34210;-86
2022/09/20 12:36:23;;;;;;;;;;;;;;;19.91;44.37;99163.34;4477063;32;34028;-86
2022/09/20 12:38:52;;;;;;;;;;;;;;;19.87;42.27;99166.97;4474636;32;33499;-86
2022/09/20 12:41:20;;;;;;;;;;;;;;;19.40;45.00;99171.56;4465070;32;34351;-86
2022/09/20 12:43:56;;;;;;;;;;;;;;;20.78;42.14;99161.94;4460033;32;34584;-86
2022/09/20 12:46:42;;;;;;;;;;;;;;;19.34;45.09;99160.31;4465753;32;34011;-90
2022/09/20 12:52:49;;;;;;;;;;;;;;;19.64;43.84;99158.78;4462067;32;32325;-86
2022/09/20 12:55:05;;;;;;;;;;;;;;;20.02;41.94;99164.84;4460503;32;35044;-92
2022/09/20 12:57:37;;;;;;;;;;;;;;;19.87;40.42;99161.69;4458491;32;34543;-87
2022/09/20 13:00:05;;;;;;;;;;;;;;;19.65;43.00;99171.00;4434188;32;791153;-95
2022/09/20 13:02:43;;;;;;;;;;;;;;;19.69;42.94;99160.38;4458466;32;33733;-85
2022/09/20 13:05:35;;;;;;;;;;;;;;;19.13;44.13;99172.16;4471709;32;34317;-85
2022/09/20 13:08:23;;;;;;;;;;;;;;;18.49;44.78;99163.84;4473335;32;34373;-85
2022/09/20 13:11:05;;;;;;;;;;;;;;;18.96;44.50;99164.66;4474599;32;34395;-85
2022/09/20 13:13:48;;;;;;;;;;;;;;;18.43;43.12;99163.94;4472063;32;34966;-85
2022/09/20 13:16:21;;;;;;;;;;;;;;;18.34;43.74;99159.75;4458677;32;34107;-86
2022/09/20 13:18:57;;;;;;;;;;;;;;;17.99;43.91;99160.38;4458014;32;34615;-84
2022/09/20 13:21:24;;;;;;;;;;;;;;;18.02;44.84;99164.69;4459955;32;33800;-86
2022/09/20 13:23:53;;;;;;;;;;;;;;;18.20;44.17;99156.50;4460371;32;34206;-86
2022/09/20 13:26:21;;;;;;;;;;;;;;;18.47;43.24;99170.87;4458695;32;33985;-85
2022/09/20 13:28:50;;;;;;;;;;;;;;;18.31;45.25;99158.94;4458605;32;34394;-85
2022/09/20 13:31:20;;;;;;;;;;;;;;;18.85;44.25;99162.25;4455619;32;33705;-86
2022/09/20 13:33:47;;;;;;;;;;;;;;;18.31;45.84;99156.31;4470439;32;34980;-91
2022/09/20 13:36:17;;;;;;;;;;;;;;;19.00;45.69;99160.22;4471926;32;34239;-91